createdAt,value
2023-03-16T00:02:44.538Z,13.63
2023-03-16T00:05:30.091Z,12.68
2023-03-16T00:08:16.467Z,11.57
2023-03-16T00:11:02.763Z,10.23
2023-03-16T00:13:48.516Z,17.80
2023-03-16T00:16:35.399Z,14.77
2023-03-16T00:19:23.052Z,12.00
2023-03-16T00:22:10.376Z,12.55
2023-03-16T00:24:56.445Z,13.82
2023-03-16T00:27:46.322Z,10.98
2023-03-16T00:30:35.676Z,11.25
2023-03-16T00:37:03.634Z,9.40
2023-03-16T00:39:50.465Z,8.90
2023-03-16T00:42:35.714Z,11.98
2023-03-16T00:45:21.254Z,7.80
2023-03-16T00:48:06.770Z,10.40
2023-03-16T00:50:54.491Z,9.45
2023-03-16T00:53:41.581Z,11.85
2023-03-16T00:56:27.065Z,13.63
2023-03-16T00:59:13.091Z,12.88
2023-03-16T01:01:58.748Z,11.65
2023-03-16T01:04:44.472Z,11.02
2023-03-16T01:07:31.242Z,12.35
2023-03-16T01:10:17.594Z,12.38
2023-03-16T01:13:03.352Z,9.55
2023-03-16T01:15:51.344Z,9.55
2023-03-16T01:18:36.743Z,10.88
2023-03-16T01:21:22.877Z,9.80
2023-03-16T01:24:09.093Z,11.32
2023-03-16T01:26:54.724Z,9.52
2023-03-16T01:29:43.663Z,12.75
2023-03-16T01:32:29.509Z,15.40
2023-03-16T01:35:15.018Z,13.18
2023-03-16T01:38:00.329Z,9.45
2023-03-16T01:40:45.983Z,12.20
2023-03-16T01:43:33.420Z,9.43
2023-03-16T01:46:22.124Z,13.75
2023-03-16T01:49:20.629Z,9.07
2023-03-16T01:52:10.373Z,7.70
2023-03-16T01:54:58.842Z,9.05
2023-03-16T01:57:47.186Z,8.18
2023-03-16T02:00:33.729Z,7.53
2023-03-16T02:03:21.792Z,7.75
2023-03-16T02:06:16.718Z,9.63
2023-03-16T02:09:02.998Z,11.82
2023-03-16T02:11:48.901Z,10.80
2023-03-16T02:14:34.221Z,10.90
2023-03-16T02:17:24.293Z,11.40
2023-03-16T02:20:30.642Z,8.32
2023-03-16T02:23:21.142Z,17.52
2023-03-16T02:26:15.523Z,15.60
2023-03-16T02:29:01.306Z,17.60
2023-03-16T02:31:47.518Z,14.70
2023-03-16T02:34:33.296Z,16.38
2023-03-16T02:37:19.389Z,14.90
2023-03-16T02:40:35.116Z,15.50
2023-03-16T02:43:25.154Z,13.77
2023-03-16T02:46:11.371Z,22.38
2023-03-16T02:49:03.221Z,15.50
2023-03-16T02:51:48.778Z,19.00
2023-03-16T02:54:34.698Z,22.33
2023-03-16T02:57:21.155Z,21.55
2023-03-16T03:00:16.954Z,21.70
2023-03-16T03:03:02.239Z,20.25
2023-03-16T03:05:47.816Z,21.00
2023-03-16T03:08:33.506Z,21.23
2023-03-16T03:11:58.548Z,14.80
2023-03-16T03:14:44.357Z,19.88
2023-03-16T03:17:32.584Z,20.98
2023-03-16T03:20:18.409Z,18.52
2023-03-16T03:23:05.510Z,18.27
2023-03-16T03:25:51.368Z,23.73
2023-03-16T03:28:36.741Z,22.17
2023-03-16T03:31:23.031Z,24.02
2023-03-16T03:34:08.676Z,24.88
2023-03-16T03:36:54.226Z,26.45
2023-03-16T03:39:40.469Z,18.27
2023-03-16T03:42:26.334Z,18.00
2023-03-16T03:45:13.094Z,19.58
2023-03-16T03:47:58.610Z,18.10
2023-03-16T03:50:44.647Z,13.75
2023-03-16T03:53:30.102Z,19.17
2023-03-16T03:56:15.504Z,17.58
2023-03-16T03:59:01.090Z,12.60
2023-03-16T04:01:46.552Z,20.48
2023-03-16T04:04:32.277Z,19.35
2023-03-16T04:07:18.261Z,16.95
2023-03-16T04:10:04.886Z,13.45
2023-03-16T04:12:50.845Z,19.27
2023-03-16T04:15:38.555Z,14.77
2023-03-16T04:18:24.596Z,11.93
2023-03-16T04:21:17.786Z,17.90
2023-03-16T04:26:50.848Z,17.70
2023-03-16T04:29:36.583Z,15.43
2023-03-16T04:32:22.516Z,12.93
2023-03-16T04:35:08.520Z,18.23
2023-03-16T04:37:54.710Z,18.30
2023-03-16T04:40:40.300Z,13.90
2023-03-16T04:43:26.389Z,16.10
2023-03-16T04:46:12.203Z,12.30
2023-03-16T04:48:58.517Z,10.82
2023-03-16T04:51:44.289Z,17.55
2023-03-16T04:54:30.461Z,13.98
2023-03-16T04:57:19.364Z,12.15
2023-03-16T05:00:15.562Z,17.60
2023-03-16T05:03:04.365Z,12.70
2023-03-16T05:05:51.039Z,13.70
2023-03-16T05:08:36.861Z,14.82
2023-03-16T05:11:22.383Z,12.20
2023-03-16T05:14:07.965Z,14.18
2023-03-16T05:16:53.547Z,14.70
2023-03-16T05:19:39.192Z,11.40
2023-03-16T05:22:24.663Z,8.35
2023-03-16T05:25:15.028Z,12.90
2023-03-16T05:28:00.579Z,6.03
2023-03-16T05:30:46.251Z,9.18
2023-03-16T05:33:32.024Z,8.75
2023-03-16T05:36:17.662Z,6.78
2023-03-16T05:39:03.550Z,11.02
2023-03-16T05:41:48.756Z,10.30
2023-03-16T05:44:34.384Z,12.93
2023-03-16T05:47:25.805Z,16.33
2023-03-16T05:50:14.055Z,13.23
2023-03-16T05:52:59.767Z,9.20
2023-03-16T05:55:45.505Z,16.70
2023-03-16T05:58:33.821Z,17.95
2023-03-16T06:01:20.569Z,12.98
2023-03-16T06:04:07.438Z,16.17
2023-03-16T06:06:52.926Z,15.10
2023-03-16T06:09:38.289Z,18.85
2023-03-16T06:12:24.020Z,11.48
2023-03-16T06:15:11.356Z,12.65
2023-03-16T06:17:57.115Z,13.45
2023-03-16T06:20:43.323Z,11.52
2023-03-16T06:23:28.609Z,9.43
2023-03-16T06:26:14.979Z,11.60
2023-03-16T06:29:00.715Z,11.38
2023-03-16T06:31:46.246Z,15.07
2023-03-16T06:34:32.001Z,16.35
2023-03-16T06:37:17.547Z,7.85
2023-03-16T06:40:04.043Z,13.27
2023-03-16T06:42:50.495Z,11.23
2023-03-16T06:45:37.067Z,7.80
2023-03-16T06:48:22.590Z,15.57
2023-03-16T06:51:08.226Z,15.98
2023-03-16T06:53:53.716Z,8.68
2023-03-16T06:56:39.301Z,10.35
2023-03-16T06:59:25.008Z,8.77
2023-03-16T07:02:14.453Z,11.48
2023-03-16T07:05:00.002Z,13.50
2023-03-16T07:07:45.641Z,13.95
2023-03-16T07:10:31.563Z,8.10
2023-03-16T07:13:17.571Z,7.93
2023-03-16T07:16:05.013Z,10.32
2023-03-16T07:18:50.623Z,8.50
2023-03-16T07:21:39.255Z,8.57
2023-03-16T07:24:24.786Z,8.75
2023-03-16T07:27:12.379Z,6.93
2023-03-16T07:29:59.963Z,11.50
2023-03-16T07:32:45.316Z,6.57
2023-03-16T07:35:30.999Z,9.55
2023-03-16T07:38:16.347Z,10.98
2023-03-16T07:41:02.427Z,6.40
2023-03-16T07:43:48.480Z,6.50
2023-03-16T07:46:34.246Z,5.32
2023-03-16T07:49:20.044Z,4.28
2023-03-16T07:52:06.480Z,4.82
2023-03-16T07:54:52.376Z,2.78
2023-03-16T07:57:39.779Z,4.97
2023-03-16T08:00:25.397Z,2.67
2023-03-16T08:03:11.823Z,4.93
2023-03-16T08:05:57.560Z,4.05
2023-03-16T08:08:43.108Z,4.93
2023-03-16T08:11:28.861Z,6.43
2023-03-16T08:14:14.604Z,3.50
2023-03-16T08:17:01.022Z,7.47
2023-03-16T08:19:46.677Z,6.40
2023-03-16T08:22:32.817Z,3.65
2023-03-16T08:25:20.052Z,5.03
2023-03-16T08:28:06.096Z,5.63
2023-03-16T08:30:53.873Z,8.70
2023-03-16T08:33:40.251Z,9.90
2023-03-16T08:36:25.641Z,5.63
2023-03-16T08:39:12.178Z,11.85
2023-03-16T08:41:57.935Z,6.38
2023-03-16T08:44:44.172Z,6.18
2023-03-16T08:47:29.823Z,7.97
2023-03-16T08:50:16.146Z,12.50
2023-03-16T08:53:03.997Z,9.25
2023-03-16T08:55:50.109Z,8.15
2023-03-16T08:58:36.949Z,10.85
2023-03-16T09:01:29.754Z,4.40
2023-03-16T09:04:16.018Z,11.23
2023-03-16T09:07:08.731Z,10.98
2023-03-16T09:09:55.821Z,9.15
2023-03-16T09:12:41.260Z,16.35
2023-03-16T09:15:27.050Z,5.13
2023-03-16T09:18:13.669Z,8.75
2023-03-16T09:21:00.840Z,9.25
2023-03-16T09:23:46.572Z,11.77
2023-03-16T09:26:35.267Z,7.25
2023-03-16T09:29:22.263Z,14.63
2023-03-16T09:32:09.210Z,6.85
2023-03-16T09:34:55.841Z,11.50
2023-03-16T09:37:45.460Z,11.00
2023-03-16T09:40:42.372Z,6.55
2023-03-16T09:44:15.953Z,12.68
2023-03-16T09:47:05.068Z,13.45
2023-03-16T09:49:54.983Z,12.77
2023-03-16T09:52:45.129Z,9.13
2023-03-16T09:55:33.807Z,8.77
2023-03-16T09:58:22.422Z,8.32
2023-03-16T10:01:12.172Z,9.25
2023-03-16T10:04:11.532Z,9.05
2023-03-16T10:07:39.481Z,10.02
2023-03-16T10:10:40.330Z,13.00
2023-03-16T10:14:03.706Z,7.65
2023-03-16T10:16:51.494Z,11.57
2023-03-16T10:20:10.839Z,9.23
2023-03-16T10:23:04.043Z,8.88
2023-03-16T10:25:55.384Z,8.20
2023-03-16T10:28:46.098Z,8.40
2023-03-16T10:31:38.857Z,11.82
2023-03-16T10:34:25.741Z,13.13
2023-03-16T10:37:22.570Z,8.32
2023-03-16T10:40:12.516Z,9.88
2023-03-16T10:43:09.632Z,8.02
2023-03-16T10:46:02.627Z,7.80
2023-03-16T10:49:03.140Z,6.97
2023-03-16T10:51:51.570Z,8.48
2023-03-16T10:54:48.065Z,6.72
2023-03-16T10:57:35.904Z,5.05
2023-03-16T11:00:29.073Z,5.07
2023-03-16T11:06:26.943Z,13.13
2023-03-16T11:09:33.473Z,7.28
2023-03-16T11:12:31.266Z,8.57
2023-03-16T11:15:25.772Z,5.93
2023-03-16T11:18:39.161Z,6.95
2023-03-16T11:21:50.897Z,8.23
2023-03-16T11:25:02.201Z,6.53
2023-03-16T11:27:53.085Z,4.55
2023-03-16T11:30:48.372Z,8.30
2023-03-16T11:33:34.952Z,6.40
2023-03-16T11:36:35.789Z,9.93
2023-03-16T11:39:34.217Z,10.57
2023-03-16T11:42:29.090Z,5.28
2023-03-16T11:45:40.168Z,7.10
2023-03-16T11:48:36.718Z,6.18
2023-03-16T11:51:42.181Z,7.57
2023-03-16T11:55:04.522Z,8.20
2023-03-16T11:57:55.517Z,7.57
2023-03-16T12:00:56.467Z,5.28
2023-03-16T12:04:12.333Z,10.07
2023-03-16T12:07:11.506Z,8.13
2023-03-16T12:10:23.577Z,5.85
2023-03-16T12:13:30.846Z,7.97
2023-03-16T12:16:23.985Z,8.05
2023-03-16T12:19:26.189Z,6.40
2023-03-16T12:22:24.501Z,6.00
2023-03-16T12:25:24.646Z,8.23
2023-03-16T12:28:36.886Z,9.85
2023-03-16T12:31:44.214Z,6.78
2023-03-16T12:34:34.582Z,11.65
2023-03-16T12:37:29.580Z,6.97
2023-03-16T12:40:40.570Z,11.85
2023-03-16T12:43:42.983Z,8.40
2023-03-16T12:47:05.367Z,7.88
2023-03-16T12:49:52.084Z,10.00
2023-03-16T12:52:45.711Z,4.13
2023-03-16T12:55:34.573Z,4.60
2023-03-16T12:58:20.643Z,6.30
2023-03-16T13:01:09.987Z,5.25
2023-03-16T13:04:23.765Z,8.60
2023-03-16T13:10:13.814Z,8.43
2023-03-16T13:13:25.468Z,9.00
2023-03-16T13:16:24.784Z,9.05
2023-03-16T13:19:29.723Z,11.25
2023-03-16T13:22:53.271Z,9.70
2023-03-16T13:25:44.246Z,12.25
2023-03-16T13:28:36.505Z,8.35
2023-03-16T13:31:42.297Z,7.37
2023-03-16T13:34:44.817Z,10.43
2023-03-16T13:37:31.317Z,9.30
2023-03-16T13:40:27.535Z,9.70
2023-03-16T13:43:18.338Z,7.63
2023-03-16T13:46:28.001Z,7.93
2023-03-16T13:49:13.532Z,10.40
2023-03-16T13:51:59.787Z,11.40
2023-03-16T13:54:45.580Z,10.07
2023-03-16T13:57:37.596Z,9.32
2023-03-16T14:00:26.428Z,7.72
2023-03-16T14:03:22.073Z,8.27
2023-03-16T14:06:19.006Z,6.22
2023-03-16T14:09:08.159Z,5.93
2023-03-16T14:11:54.709Z,11.27
2023-03-16T14:14:41.416Z,10.30
2023-03-16T14:17:28.841Z,8.15
2023-03-16T14:20:26.119Z,13.68
2023-03-16T14:23:24.718Z,8.98
2023-03-16T14:26:13.843Z,11.40
2023-03-16T14:29:28.489Z,9.15
2023-03-16T14:32:28.592Z,8.70
2023-03-16T14:35:17.582Z,7.32
2023-03-16T14:38:23.650Z,9.57
2023-03-16T14:41:12.341Z,9.70
2023-03-16T14:44:00.551Z,10.05
2023-03-16T14:46:46.162Z,10.20
2023-03-16T14:49:43.237Z,8.43
2023-03-16T14:52:34.295Z,7.82
2023-03-16T14:55:22.805Z,7.43
2023-03-16T14:58:10.241Z,8.07
2023-03-16T15:00:57.515Z,4.45
2023-03-16T15:03:44.927Z,11.45
2023-03-16T15:06:32.728Z,4.75
2023-03-16T15:09:31.457Z,7.05
2023-03-16T15:12:19.966Z,6.30
2023-03-16T15:15:18.736Z,9.38
2023-03-16T15:18:04.371Z,7.22
2023-03-16T15:20:53.788Z,7.45
2023-03-16T15:23:42.894Z,9.30
2023-03-16T15:26:30.005Z,5.82
2023-03-16T15:29:19.729Z,7.60
2023-03-16T15:32:11.811Z,5.75
2023-03-16T15:34:57.816Z,4.90
2023-03-16T15:37:44.432Z,8.45
2023-03-16T15:40:37.617Z,4.00
2023-03-16T15:43:27.161Z,7.88
2023-03-16T15:46:12.755Z,7.20
2023-03-16T15:48:58.837Z,8.10
2023-03-16T15:51:44.390Z,4.60
2023-03-16T15:54:30.060Z,4.25
2023-03-16T15:57:15.788Z,4.07
2023-03-16T16:00:02.455Z,7.90
2023-03-16T16:02:48.736Z,3.08
2023-03-16T16:05:34.795Z,5.07
2023-03-16T16:08:21.585Z,9.27
2023-03-16T16:11:47.644Z,8.10
2023-03-16T16:14:35.188Z,9.95
2023-03-16T16:17:43.761Z,5.43
2023-03-16T16:20:45.262Z,8.45
2023-03-16T16:23:33.608Z,9.05
2023-03-16T16:26:46.962Z,8.50
2023-03-16T16:29:35.636Z,5.97
2023-03-16T16:32:25.571Z,9.20
2023-03-16T16:35:27.420Z,7.70
2023-03-16T16:38:33.459Z,7.28
2023-03-16T16:41:25.835Z,8.02
2023-03-16T16:44:39.731Z,9.23
2023-03-16T16:47:40.907Z,8.70
2023-03-16T16:50:34.966Z,8.20
2023-03-16T16:53:21.533Z,7.82
2023-03-16T16:56:13.638Z,6.28
2023-03-16T16:59:14.050Z,9.65
2023-03-16T17:02:01.516Z,10.68
2023-03-16T17:04:53.637Z,8.02
2023-03-16T17:07:39.584Z,9.85
2023-03-16T17:10:27.183Z,8.40
2023-03-16T17:13:30.773Z,9.68
2023-03-16T17:16:23.046Z,5.70
2023-03-16T17:19:23.354Z,6.68
2023-03-16T17:22:28.482Z,8.65
2023-03-16T17:25:15.664Z,7.03
2023-03-16T17:28:02.669Z,6.03
2023-03-16T17:30:53.994Z,8.63
2023-03-16T17:33:40.740Z,8.93
2023-03-16T17:36:27.605Z,10.02
2023-03-16T17:39:33.042Z,8.68
2023-03-16T17:42:20.656Z,7.75
2023-03-16T17:45:14.860Z,8.32
2023-03-16T17:48:00.138Z,8.70
2023-03-16T17:50:46.707Z,8.98
2023-03-16T17:53:33.569Z,8.30
2023-03-16T17:56:25.657Z,7.10
2023-03-16T17:59:22.176Z,9.43
2023-03-16T18:02:38.420Z,8.15
2023-03-16T18:05:34.035Z,10.57
2023-03-16T18:08:26.194Z,8.80
2023-03-16T18:11:23.066Z,7.05
2023-03-16T18:14:24.217Z,8.13
2023-03-16T18:17:26.755Z,4.28
2023-03-16T18:20:22.832Z,14.32
2023-03-16T18:23:21.057Z,7.40
2023-03-16T18:26:08.009Z,8.48
2023-03-16T18:28:54.198Z,10.20
2023-03-16T18:31:41.161Z,6.60
2023-03-16T18:34:33.713Z,10.68
2023-03-16T18:37:25.501Z,7.68
2023-03-16T18:40:17.333Z,10.48
2023-03-16T18:43:03.560Z,9.57
2023-03-16T18:45:49.581Z,6.32
2023-03-16T18:48:36.770Z,9.30
2023-03-16T18:51:23.187Z,9.82
2023-03-16T18:54:32.583Z,10.25
2023-03-16T18:57:21.550Z,13.95
2023-03-16T19:00:09.103Z,6.82
2023-03-16T19:03:01.606Z,8.75
2023-03-16T19:05:47.900Z,6.83
2023-03-16T19:08:34.466Z,7.82
2023-03-16T19:11:20.588Z,11.43
2023-03-16T19:14:18.773Z,8.85
2023-03-16T19:17:04.327Z,7.97
2023-03-16T19:19:49.939Z,6.57
2023-03-16T19:22:35.483Z,8.43
2023-03-16T19:25:41.295Z,6.03
2023-03-16T19:28:35.649Z,8.80
2023-03-16T19:31:28.236Z,8.55
2023-03-16T19:34:20.228Z,5.05
2023-03-16T19:37:07.118Z,7.30
2023-03-16T19:39:53.508Z,9.73
2023-03-16T19:42:41.224Z,8.77
2023-03-16T19:45:35.916Z,11.70
2023-03-16T19:48:40.329Z,6.05
2023-03-16T19:51:29.256Z,8.88
2023-03-16T19:54:33.510Z,9.73
2023-03-16T19:57:21.350Z,10.73
2023-03-16T20:00:25.396Z,5.78
2023-03-16T20:05:57.722Z,9.18
2023-03-16T20:08:44.687Z,10.02
2023-03-16T20:11:32.298Z,11.70
2023-03-16T20:14:19.803Z,9.27
2023-03-16T20:17:11.100Z,9.40
2023-03-16T20:19:57.731Z,11.15
2023-03-16T20:22:43.851Z,11.07
2023-03-16T20:25:34.657Z,7.60
2023-03-16T20:28:38.536Z,8.38
2023-03-16T20:34:32.330Z,7.97
2023-03-16T20:37:24.011Z,5.60
2023-03-16T20:40:10.451Z,11.60
2023-03-16T20:42:59.698Z,12.07
2023-03-16T20:45:46.110Z,7.80
2023-03-16T20:48:34.225Z,15.00
2023-03-16T20:51:20.317Z,10.27
2023-03-16T20:54:08.813Z,6.10
2023-03-16T20:56:55.362Z,7.07
2023-03-16T20:59:41.384Z,10.80
2023-03-16T21:02:38.631Z,8.90
2023-03-16T21:05:24.679Z,7.72
2023-03-16T21:08:10.645Z,14.70
2023-03-16T21:10:57.535Z,13.00
2023-03-16T21:13:43.183Z,9.23
2023-03-16T21:16:30.328Z,6.15
2023-03-16T21:19:18.545Z,8.32
2023-03-16T21:22:23.191Z,10.65
2023-03-16T21:25:15.402Z,8.35
2023-03-16T21:28:11.004Z,13.18
2023-03-16T21:31:05.061Z,10.07
2023-03-16T21:33:53.768Z,7.40
2023-03-16T21:36:39.466Z,10.23
2023-03-16T21:39:25.346Z,9.57
2023-03-16T21:42:12.683Z,8.00
2023-03-16T21:44:58.382Z,10.23
2023-03-16T21:47:49.662Z,8.05
2023-03-16T21:50:36.801Z,8.35
2023-03-16T21:53:27.386Z,9.27
2023-03-16T21:56:22.985Z,9.63
2023-03-16T21:59:12.787Z,8.63
2023-03-16T22:02:01.910Z,8.85
2023-03-16T22:04:50.551Z,10.88
2023-03-16T22:07:36.770Z,16.23
2023-03-16T22:10:22.504Z,6.57
2023-03-16T22:13:09.393Z,9.40
2023-03-16T22:15:57.614Z,13.57
2023-03-16T22:18:44.700Z,12.43
2023-03-16T22:21:56.978Z,9.70
2023-03-16T22:24:42.510Z,11.70
2023-03-16T22:27:30.107Z,8.93
2023-03-16T22:30:21.725Z,8.20
2023-03-16T22:33:07.585Z,10.40
2023-03-16T22:35:53.421Z,13.65
2023-03-16T22:38:40.840Z,10.52
2023-03-16T22:41:26.622Z,10.98
2023-03-16T22:44:22.393Z,15.60
2023-03-16T22:47:21.807Z,7.40
2023-03-16T22:50:07.524Z,10.88
2023-03-16T22:52:55.744Z,10.05
2023-03-16T22:55:41.403Z,8.55
2023-03-16T22:58:38.770Z,12.73
2023-03-16T23:01:34.422Z,13.15
2023-03-16T23:04:23.545Z,12.73
2023-03-16T23:07:13.517Z,14.43
2023-03-16T23:09:59.259Z,12.63
2023-03-16T23:12:45.544Z,12.25
2023-03-16T23:15:38.437Z,11.93
2023-03-16T23:18:26.185Z,17.83
2023-03-16T23:21:15.144Z,14.27
2023-03-16T23:24:04.372Z,11.88
2023-03-16T23:26:51.620Z,12.13
2023-03-16T23:29:37.454Z,9.80
2023-03-16T23:32:23.021Z,10.57
2023-03-16T23:35:17.743Z,13.20
2023-03-16T23:38:03.587Z,17.30
2023-03-16T23:40:49.814Z,11.77
2023-03-16T23:43:35.674Z,15.93
2023-03-16T23:46:24.436Z,13.73
2023-03-16T23:49:24.598Z,14.38
2023-03-16T23:52:12.247Z,13.07
2023-03-16T23:54:59.340Z,16.02
2023-03-16T23:57:46.035Z,13.48
